Temp: 14.3°C   Baro: 1018.8mb
  Wind: 6.0mph   Dir: N (8°)
  Rain: 0.0mm (0.0mm/hr)
  Solar: 253W/m2  Hum: 71%
 
Bath Spa Weather Station Historical Data
Daily Summary for November 1, 2019 Units:  Metric    English   Both
Daily Weekly Monthly Yearly Custom
  High: Low: Average:
Temperature: 15.7 °C 10.3 °C 13.9 °C
Dew Point: 14.1 °C 9.5 °C 12.7 °C
Humidity: 96% 85% 92%
Wind Speed: 15.8km/h 0.3km/h 7.1km/h
Wind Gust: 30.6km/h - -
Wind- - SSW
Pressure: 1010.4 hPa 986 hPa -
Precipitation: 2.29 mm    
Historical Graphs
 
 
Tabular Data for November 1, 2019
Time Temperature Dew Point Pressure Wind Wind Speed Wind Gust Humidity Rainfall Rate (Hourly) solar
00:04 10.3 °C 9.5 °C 1010.4 hPa East 2.1 km/h 11.3 km/h 95% 0.51 mm 0 W/m2
00:09 10.3 °C 9.5 °C 1010.4 hPa East 2.7 km/h 8 km/h 95% 0.51 mm 0 W/m2
00:14 10.3 °C 9.5 °C 1010.4 hPa East 1.1 km/h 9.7 km/h 95% 0.51 mm 0 W/m2
00:19 10.3 °C 9.5 °C 1010.4 hPa East 0.6 km/h 3.2 km/h 95% 0.51 mm 0 W/m2
00:24 10.3 °C 9.5 °C 1010 hPa East 2.7 km/h 8 km/h 95% 0.51 mm 0 W/m2
00:29 10.3 °C 9.6 °C 1010 hPa East 2.4 km/h 8 km/h 95% 0.51 mm 0 W/m2
00:34 10.4 °C 9.6 °C 1010 hPa East 2.4 km/h 8 km/h 95% 0.25 mm 0 W/m2
00:39 10.4 °C 9.6 °C 1009.7 hPa East 1 km/h 4.8 km/h 95% 0.25 mm 0 W/m2
00:44 10.4 °C 9.6 °C 1009.7 hPa East 0.8 km/h 4.8 km/h 95% 0.25 mm 0 W/m2
00:49 10.4 °C 9.6 °C 1009.4 hPa East 2.1 km/h 8 km/h 95% 0 mm 0 W/m2
00:54 10.5 °C 9.7 °C 1009 hPa ESE 1.9 km/h 8 km/h 95% 0 mm 0 W/m2
00:59 10.6 °C 9.8 °C 1009 hPa ESE 0.3 km/h 3.2 km/h 95% 0.25 mm 0 W/m2
01:04 10.6 °C 9.8 °C 1009 hPa ESE 1.9 km/h 6.4 km/h 95% 0.25 mm 0 W/m2
01:09 10.7 °C 9.8 °C 1008.7 hPa ESE 2.4 km/h 8 km/h 95% 0.25 mm 0 W/m2
01:14 10.7 °C 9.9 °C 1008.7 hPa ESE 3.1 km/h 8 km/h 95% 0.25 mm 0 W/m2
01:19 10.8 °C 10 °C 1008.7 hPa ESE 2.3 km/h 9.7 km/h 95% 0.25 mm 0 W/m2
01:24 10.8 °C 10 °C 1008.4 hPa SE 4.2 km/h 11.3 km/h 95% 0.25 mm 0 W/m2
01:29 10.9 °C 10.1 °C 1008.4 hPa ESE 3.7 km/h 9.7 km/h 95% 0.25 mm 0 W/m2
01:34 10.9 °C 10.1 °C 1008.4 hPa SE 4.7 km/h 9.7 km/h 95% 0.25 mm 0 W/m2
01:39 11 °C 10.2 °C 1008 hPa SE 2.7 km/h 8 km/h 95% 0.25 mm 0 W/m2
01:44 11 °C 10.2 °C 1008 hPa SE 3.5 km/h 8 km/h 95% 0.25 mm 0 W/m2
01:49 11.1 °C 10.3 °C 1008 hPa SE 2.9 km/h 8 km/h 95.2% 0.51 mm 0 W/m2
01:54 11.1 °C 10.3 °C 1007.7 hPa SE 2.7 km/h 8 km/h 95.3% 0.51 mm 0 W/m2
01:59 11.2 °C 10.6 °C 1007.7 hPa SE 4.2 km/h 9.7 km/h 96% 0.51 mm 0 W/m2
02:04 11.3 °C 10.7 °C 1007.3 hPa ESE 4 km/h 9.7 km/h 96% 0.25 mm 0 W/m2
02:09 11.3 °C 10.7 °C 1007.3 hPa SE 4.3 km/h 9.7 km/h 95.9% 0.25 mm 0 W/m2
02:14 11.4 °C 10.8 °C 1007 hPa ESE 6.9 km/h 11.3 km/h 95.9% 0.25 mm 0 W/m2
02:19 11.4 °C 10.8 °C 1006.7 hPa ESE 3.9 km/h 9.7 km/h 96% 0.25 mm 0 W/m2
02:24 11.6 °C 10.9 °C 1006.7 hPa ESE 5 km/h 12.9 km/h 96% 0.25 mm 0 W/m2
02:29 11.6 °C 11 °C 1006.3 hPa SE 5 km/h 11.3 km/h 96% 0.25 mm 0 W/m2
02:34 11.7 °C 11.1 °C 1006.3 hPa SE 5.6 km/h 11.3 km/h 96% 0.25 mm 0 W/m2
02:39 11.7 °C 11.1 °C 1006.3 hPa ESE 5.5 km/h 11.3 km/h 96% 0.25 mm 0 W/m2
02:44 11.8 °C 11.2 °C 1006 hPa ESE 5.5 km/h 11.3 km/h 96% 0.25 mm 0 W/m2
02:49 11.8 °C 11.2 °C 1005.6 hPa ESE 7.4 km/h 12.9 km/h 96% 0.25 mm 0 W/m2
02:54 11.9 °C 11.3 °C 1005.6 hPa ESE 3.2 km/h 12.9 km/h 96% 0 mm 0 W/m2
02:59 12 °C 11.4 °C 1005.3 hPa ESE 5.3 km/h 14.5 km/h 96% 0 mm 0 W/m2
03:04 12.1 °C 11.4 °C 1005.3 hPa SE 4.2 km/h 14.5 km/h 96% 0 mm 0 W/m2
03:09 12.1 °C 11.5 °C 1005.3 hPa SE 3.7 km/h 11.3 km/h 96% 0 mm 0 W/m2
03:14 12.1 °C 11.5 °C 1005 hPa SE 3.7 km/h 9.7 km/h 96% 0 mm 0 W/m2
03:19 12.1 °C 11.5 °C 1005 hPa SE 2.6 km/h 9.7 km/h 96% 0 mm 0 W/m2
03:24 12.1 °C 11.5 °C 1005 hPa SE 2.3 km/h 9.7 km/h 96% 0 mm 0 W/m2
03:29 12.2 °C 11.6 °C 1005 hPa ESE 3.7 km/h 11.3 km/h 96% 0 mm 0 W/m2
03:34 12.2 °C 11.6 °C 1004.6 hPa SE 2.7 km/h 9.7 km/h 96% 0 mm 0 W/m2
03:39 12.2 °C 11.6 °C 1004.6 hPa SE 3.7 km/h 9.7 km/h 96% 0.25 mm 0 W/m2
03:44 12.2 °C 11.6 °C 1004.6 hPa SE 4.3 km/h 11.3 km/h 96% 0.25 mm 0 W/m2
03:49 12.2 °C 11.7 °C 1004.3 hPa East 3.1 km/h 8 km/h 96% 0.25 mm 0 W/m2
03:54 12.3 °C 11.7 °C 1004.3 hPa ESE 3.5 km/h 9.7 km/h 96% 0.25 mm 0 W/m2
03:59 12.3 °C 11.7 °C 1003.9 hPa ESE 3.2 km/h 11.3 km/h 96% 0.25 mm 0 W/m2
04:04 12.3 °C 11.7 °C 1003.9 hPa ESE 6 km/h 12.9 km/h 96% 0.25 mm 0 W/m2
04:09 12.4 °C 11.8 °C 1003.9 hPa SE 3.2 km/h 12.9 km/h 96% 0.25 mm 0 W/m2
04:14 12.4 °C 11.8 °C 1003.9 hPa SE 5.5 km/h 14.5 km/h 96% 0.25 mm 0 W/m2
04:19 12.5 °C 11.9 °C 1003.6 hPa SSE 5.8 km/h 11.3 km/h 96% 0.25 mm 0 W/m2
04:24 12.6 °C 12 °C 1003.6 hPa South 5.8 km/h 16.1 km/h 96% 0.25 mm 0 W/m2
04:29 12.7 °C 12.1 °C 1003.6 hPa South 6.6 km/h 16.1 km/h 96% 0.25 mm 0 W/m2
04:34 12.8 °C 12.2 °C 1003.3 hPa South 11.6 km/h 22.5 km/h 96% 0.25 mm 0 W/m2
04:39 12.8 °C 12.3 °C 1003.3 hPa SSE 8.2 km/h 22.5 km/h 96% 0.25 mm 0 W/m2
04:44 12.8 °C 12.2 °C 1002.9 hPa SE 7.4 km/h 14.5 km/h 96% 0 mm 0 W/m2
04:49 12.9 °C 12.3 °C 1002.9 hPa SSE 7.6 km/h 16.1 km/h 96% 0 mm 0 W/m2
04:54 12.9 °C 12.3 °C 1002.9 hPa South 9.5 km/h 19.3 km/h 96% 0 mm 0 W/m2
04:59 12.9 °C 12.3 °C 1002.9 hPa South 10.6 km/h 22.5 km/h 96% 0 mm 0 W/m2
05:04 12.9 °C 12.3 °C 1002.6 hPa South 10.6 km/h 24.1 km/h 96% 0 mm 0 W/m2
05:09 13 °C 12.4 °C 1002.6 hPa South 10.1 km/h 24.1 km/h 96% 0 mm 0 W/m2
05:14 13.1 °C 12.4 °C 1002.6 hPa South 12.1 km/h 25.7 km/h 96% 0 mm 0 W/m2
05:19 13.1 °C 12.5 °C 1002.3 hPa South 11.7 km/h 24.1 km/h 96% 0 mm 0 W/m2
05:24 13.1 °C 12.5 °C 1002.3 hPa SSE 8.7 km/h 24.1 km/h 96% 0 mm 0 W/m2
05:29 13.1 °C 12.3 °C 1002.3 hPa South 8.2 km/h 20.9 km/h 95.2% 0 mm 0 W/m2
05:34 13.1 °C 12.3 °C 1001.9 hPa South 7.7 km/h 14.5 km/h 95% 0 mm 0 W/m2
05:39 13.2 °C 12.3 °C 1001.9 hPa South 11.6 km/h 24.1 km/h 95% 0 mm 0 W/m2
05:44 13.2 °C 12.4 °C 1001.9 hPa South 10.6 km/h 25.7 km/h 95% 0 mm 0 W/m2
05:49 13.2 °C 12.4 °C 1001.9 hPa South 8 km/h 17.7 km/h 95% 0 mm 0 W/m2
05:54 13.2 °C 12.4 °C 1001.9 hPa South 9.3 km/h 17.7 km/h 95% 0 mm 0 W/m2
05:59 13.2 °C 12.4 °C 1001.9 hPa South 8.4 km/h 16.1 km/h 95% 0 mm 0 W/m2
06:04 13.2 °C 12.4 °C 1001.9 hPa SSW 8.5 km/h 19.3 km/h 94.8% 0 mm 0 W/m2
06:09 13.2 °C 12.4 °C 1001.9 hPa South 6.6 km/h 19.3 km/h 94.8% 0 mm 0 W/m2
06:14 13.2 °C 12.4 °C 1001.6 hPa South 11.9 km/h 20.9 km/h 95% 0 mm 0 W/m2
06:19 13.3 °C 12.4 °C 1001.6 hPa South 8.4 km/h 20.9 km/h 95% 0 mm 0 W/m2
06:24 13.2 °C 12.4 °C 1001.6 hPa South 9 km/h 12.9 km/h 95% 0 mm 0 W/m2
06:29 13.3 °C 12.5 °C 1001.6 hPa South 9.8 km/h 16.1 km/h 95% 0 mm 0 W/m2
06:34 13.3 °C 12.5 °C 1001.2 hPa South 8.2 km/h 19.3 km/h 95% 0 mm 0 W/m2
06:39 13.3 °C 12.5 °C 1001.2 hPa South 7.1 km/h 17.7 km/h 95% 0 mm 0 W/m2
06:44 13.3 °C 12.6 °C 1001.2 hPa South 9.5 km/h 17.7 km/h 95% 0 mm 0 W/m2
06:49 13.3 °C 12.6 °C 1001.2 hPa South 6.6 km/h 16.1 km/h 95% 0 mm 0 W/m2
06:54 13.4 °C 12.6 °C 1001.2 hPa SSW 6.3 km/h 14.5 km/h 94.8% 0 mm 0 W/m2
06:59 13.4 °C 12.6 °C 1001.2 hPa South 6.8 km/h 12.9 km/h 94.9% 0 mm 0 W/m2
07:04 13.4 °C 12.6 °C 1000.9 hPa South 8.5 km/h 14.5 km/h 94.7% 0 mm 0 W/m2
07:09 13.4 °C 12.6 °C 1000.9 hPa South 9.3 km/h 17.7 km/h 94.7% 0 mm 0 W/m2
07:14 13.5 °C 12.7 °C 1000.9 hPa South 7.9 km/h 19.3 km/h 94.7% 0 mm 0 W/m2
07:19 13.5 °C 12.6 °C 1000.9 hPa SSW 5.3 km/h 12.9 km/h 94.1% 0 mm 0 W/m2
07:24 13.6 °C 12.7 °C 1000.9 hPa SSW 5.1 km/h 11.3 km/h 94.5% 0 mm 5 W/m2
07:29 13.6 °C 12.7 °C 1000.9 hPa SW 2.7 km/h 9.7 km/h 94.8% 0 mm 5 W/m2
07:34 13.6 °C 12.8 °C 1000.6 hPa WSW 3.7 km/h 9.7 km/h 94.7% 0 mm 7 W/m2
07:39 13.6 °C 12.8 °C 1000.6 hPa WSW 3.7 km/h 9.7 km/h 95% 0 mm 18 W/m2
07:44 13.6 °C 12.8 °C 1000.2 hPa WSW 4 km/h 9.7 km/h 95% 0 mm 35 W/m2
07:49 13.6 °C 12.8 °C 1000.2 hPa SSW 4 km/h 12.9 km/h 95% 0 mm 44 W/m2
07:54 13.7 °C 12.8 °C 1000.2 hPa SSW 6.1 km/h 12.9 km/h 95% 0 mm 53 W/m2
07:59 13.7 °C 12.9 °C 1000.2 hPa SW 4.8 km/h 12.9 km/h 95% 0 mm 51 W/m2
08:04 13.7 °C 12.9 °C 1000.2 hPa SSW 6.3 km/h 12.9 km/h 95% 0 mm 51 W/m2
08:09 13.7 °C 12.9 °C 1000.2 hPa South 6 km/h 12.9 km/h 95% 0 mm 53 W/m2
08:14 13.8 °C 13 °C 999.9 hPa South 8.7 km/h 16.1 km/h 95% 0 mm 56 W/m2
08:19 13.8 °C 13.1 °C 999.9 hPa South 6.6 km/h 16.1 km/h 95% 0 mm 58 W/m2
08:24 13.9 °C 13.1 °C 999.9 hPa South 6.1 km/h 12.9 km/h 95% 0 mm 62 W/m2
08:29 13.9 °C 13.2 °C 999.9 hPa South 8 km/h 12.9 km/h 95% 0 mm 65 W/m2
08:34 13.9 °C 13.2 °C 999.9 hPa SSW 6.1 km/h 12.9 km/h 95% 0 mm 60 W/m2
08:39 14 °C 13.2 °C 999.9 hPa SSW 4 km/h 12.9 km/h 95% 0 mm 97 W/m2
08:44 14.1 °C 13.3 °C 999.5 hPa SSW 4 km/h 8 km/h 95% 0 mm 107 W/m2
08:49 14.1 °C 13.3 °C 999.5 hPa SSW 2.9 km/h 6.4 km/h 95% 0 mm 93 W/m2
08:54 14.2 °C 13.4 °C 999.5 hPa SSW 1.1 km/h 6.4 km/h 95% 0 mm 111 W/m2
08:59 14.3 °C 13.5 °C 999.5 hPa SW 4.8 km/h 14.5 km/h 95% 0 mm 125 W/m2
09:04 14.3 °C 13.5 °C 999.5 hPa SW 4.2 km/h 12.9 km/h 95% 0 mm 111 W/m2
09:09 14.4 °C 13.6 °C 999.2 hPa SW 4 km/h 12.9 km/h 95% 0 mm 100 W/m2
09:14 14.4 °C 13.6 °C 999.2 hPa SW 4 km/h 9.7 km/h 95% 0 mm 81 W/m2
09:19 14.5 °C 13.7 °C 999.2 hPa SW 3.7 km/h 11.3 km/h 95% 0 mm 63 W/m2
09:24 14.5 °C 13.7 °C 999.2 hPa SW 5.8 km/h 9.7 km/h 95% 0 mm 63 W/m2
09:29 14.6 °C 13.8 °C 999.2 hPa WSW 4.3 km/h 9.7 km/h 95% 0 mm 84 W/m2
09:34 14.6 °C 13.8 °C 999.2 hPa SW 6.8 km/h 11.3 km/h 95% 0 mm 116 W/m2
09:39 14.6 °C 13.8 °C 999.2 hPa WSW 8.2 km/h 14.5 km/h 95% 0 mm 104 W/m2
09:44 14.6 °C 13.7 °C 998.9 hPa SW 7.2 km/h 14.5 km/h 94.5% 0 mm 151 W/m2
09:49 14.7 °C 13.7 °C 998.9 hPa WSW 7.9 km/h 14.5 km/h 94% 0 mm 178 W/m2
09:54 14.8 °C 13.8 °C 998.9 hPa WSW 6.9 km/h 14.5 km/h 94.2% 0 mm 193 W/m2
09:59 14.8 °C 13.8 °C 998.5 hPa WSW 7.7 km/h 14.5 km/h 94% 0 mm 236 W/m2
10:04 14.9 °C 13.9 °C 998.5 hPa WSW 7.4 km/h 14.5 km/h 94% 0 mm 229 W/m2
10:09 15.1 °C 14.1 °C 998.5 hPa WSW 7.6 km/h 12.9 km/h 93.9% 0 mm 193 W/m2
10:14 15.2 °C 14.1 °C 998.5 hPa SW 7.2 km/h 17.7 km/h 93% 0 mm 255 W/m2
10:19 15.2 °C 14 °C 998.2 hPa SW 10.6 km/h 17.7 km/h 92.4% 0 mm 299 W/m2
10:24 15.2 °C 13.9 °C 998.2 hPa WSW 9.5 km/h 16.1 km/h 92% 0 mm 171 W/m2
10:29 15.2 °C 13.8 °C 998.5 hPa SW 11.1 km/h 20.9 km/h 91.1% 0 mm 121 W/m2
10:34 15.1 °C 13.6 °C 998.2 hPa WSW 8.7 km/h 20.9 km/h 90.8% 0 mm 102 W/m2
10:39 14.9 °C 13.3 °C 998.5 hPa SW 13 km/h 20.9 km/h 90% 0 mm 102 W/m2
10:44 14.8 °C 13.1 °C 998.5 hPa SW 10.1 km/h 20.9 km/h 89.3% 0 mm 120 W/m2
10:49 14.8 °C 13 °C 998.2 hPa WSW 8.5 km/h 16.1 km/h 89% 0 mm 123 W/m2
10:54 14.8 °C 13 °C 998.2 hPa SW 6.3 km/h 16.1 km/h 89% 0 mm 123 W/m2
10:59 14.8 °C 13 °C 998.2 hPa SW 6.9 km/h 16.1 km/h 89% 0 mm 114 W/m2
11:04 14.7 °C 12.9 °C 998.2 hPa SW 7.2 km/h 16.1 km/h 89% 0 mm 69 W/m2
11:09 14.6 °C 12.8 °C 998.2 hPa SW 9.2 km/h 17.7 km/h 89% 0 mm 100 W/m2
11:14 14.4 °C 12.7 °C 997.9 hPa WSW 10.6 km/h 19.3 km/h 89% 0 mm 134 W/m2
11:19 14.4 °C 12.6 °C 997.9 hPa West 9.2 km/h 17.7 km/h 89% 0 mm 137 W/m2
11:24 14.4 °C 12.6 °C 997.9 hPa WSW 8.2 km/h 16.1 km/h 89% 0 mm 100 W/m2
11:29 14.4 °C 12.6 °C 997.9 hPa WSW 8.4 km/h 17.7 km/h 88.8% 0 mm 84 W/m2
11:34 14.4 °C 12.6 °C 997.5 hPa WSW 9.2 km/h 24.1 km/h 88.8% 0 mm 105 W/m2
11:39 14.4 °C 12.6 °C 997.5 hPa WSW 4.5 km/h 11.3 km/h 89% 0 mm 118 W/m2
11:44 14.4 °C 12.6 °C 997.5 hPa West 7.6 km/h 19.3 km/h 89% 0 mm 146 W/m2
11:49 14.4 °C 12.6 °C 997.2 hPa WSW 7.7 km/h 16.1 km/h 89% 0 mm 151 W/m2
11:54 14.5 °C 12.7 °C 997.2 hPa WSW 5.8 km/h 12.9 km/h 88.9% 0 mm 397 W/m2
11:59 14.7 °C 12.7 °C 997.2 hPa WSW 7.1 km/h 17.7 km/h 88% 0 mm 397 W/m2
12:04 14.8 °C 12.8 °C 996.8 hPa WSW 7.7 km/h 17.7 km/h 88% 0 mm 285 W/m2
12:09 14.9 °C 12.8 °C 997.2 hPa SW 11.9 km/h 20.9 km/h 87.5% 0 mm 230 W/m2
12:14 14.8 °C 12.7 °C 996.8 hPa SW 10.1 km/h 20.9 km/h 87% 0 mm 257 W/m2
12:19 14.8 °C 12.7 °C 996.8 hPa WSW 8.9 km/h 16.1 km/h 87% 0 mm 315 W/m2
12:24 14.9 °C 12.8 °C 996.8 hPa SW 7.6 km/h 14.5 km/h 87% 0 mm 149 W/m2
12:29 14.9 °C 12.8 °C 996.8 hPa West 7.9 km/h 12.9 km/h 87% 0 mm 206 W/m2
12:34 14.9 °C 12.8 °C 996.8 hPa West 7.6 km/h 14.5 km/h 87% 0 mm 183 W/m2
12:39 14.9 °C 12.8 °C 996.8 hPa West 10.3 km/h 19.3 km/h 87% 0 mm 116 W/m2
12:44 14.9 °C 12.8 °C 996.5 hPa WSW 9 km/h 19.3 km/h 87% 0 mm 102 W/m2
12:49 14.9 °C 12.8 °C 996.5 hPa WSW 7.2 km/h 14.5 km/h 87% 0 mm 176 W/m2
12:54 14.9 °C 12.8 °C 996.5 hPa WSW 9.5 km/h 19.3 km/h 87% 0 mm 211 W/m2
12:59 15 °C 12.9 °C 996.2 hPa WSW 10.1 km/h 19.3 km/h 87% 0 mm 211 W/m2
13:04 15.1 °C 13 °C 996.2 hPa SW 8 km/h 17.7 km/h 87% 0 mm 167 W/m2
13:09 15.1 °C 13 °C 995.8 hPa WSW 4.3 km/h 14.5 km/h 87% 0 mm 105 W/m2
13:14 15.1 °C 13 °C 995.8 hPa WSW 5 km/h 12.9 km/h 87% 0 mm 134 W/m2
13:19 15.1 °C 13 °C 995.8 hPa WSW 8.9 km/h 17.7 km/h 87% 0 mm 125 W/m2
13:24 15.1 °C 12.9 °C 995.5 hPa WSW 10 km/h 20.9 km/h 87% 0 mm 47 W/m2
13:29 14.9 °C 12.8 °C 995.5 hPa SW 8 km/h 19.3 km/h 87% 0 mm 65 W/m2
13:34 14.9 °C 12.8 °C 995.5 hPa SW 7.4 km/h 17.7 km/h 87% 0 mm 88 W/m2
13:39 14.9 °C 12.8 °C 995.1 hPa WSW 1.6 km/h 11.3 km/h 87% 0 mm 223 W/m2
13:44 15.3 °C 13.2 °C 995.1 hPa West 1.9 km/h 8 km/h 87.5% 0 mm 483 W/m2
13:49 15.7 °C 13.5 °C 995.1 hPa West 3.7 km/h 9.7 km/h 86.8% 0 mm 362 W/m2
13:54 15.7 °C 13.3 °C 994.8 hPa WSW 5.6 km/h 11.3 km/h 85.6% 0 mm 167 W/m2
13:59 15.6 °C 13.1 °C 994.8 hPa West 4.2 km/h 12.9 km/h 85% 0 mm 125 W/m2
14:04 15.7 °C 13.3 °C 994.5 hPa WSW 1.6 km/h 9.7 km/h 85.8% 0 mm 128 W/m2
14:09 15.7 °C 13.2 °C 994.5 hPa SW 7.4 km/h 16.1 km/h 85.2% 0 mm 121 W/m2
14:14 15.6 °C 13.1 °C 994.5 hPa WSW 6.6 km/h 16.1 km/h 85% 0 mm 109 W/m2
14:19 15.6 °C 13.1 °C 994.1 hPa SW 5.8 km/h 14.5 km/h 85% 0 mm 113 W/m2
14:24 15.6 °C 13.1 °C 994.1 hPa SW 6.1 km/h 14.5 km/h 85% 0 mm 204 W/m2
14:29 15.7 °C 13.2 °C 993.8 hPa SW 4.7 km/h 12.9 km/h 85% 0 mm 197 W/m2
14:34 15.7 °C 13.2 °C 993.8 hPa SSW 8 km/h 17.7 km/h 85% 0 mm 111 W/m2
14:39 15.6 °C 13.2 °C 993.8 hPa SW 11.4 km/h 24.1 km/h 85.6% 0 mm 95 W/m2
14:44 15.4 °C 13.1 °C 993.8 hPa SSW 7.7 km/h 19.3 km/h 86% 0 mm 83 W/m2
14:49 15.3 °C 13.1 °C 993.8 hPa SW 9.5 km/h 16.1 km/h 86.7% 0 mm 54 W/m2
14:54 15.2 °C 13.1 °C 993.8 hPa SW 10.3 km/h 20.9 km/h 87% 0 mm 46 W/m2
14:59 15.2 °C 13.2 °C 993.5 hPa SW 8.5 km/h 20.9 km/h 87.9% 0 mm 58 W/m2
15:04 15.2 °C 13.2 °C 993.5 hPa SSW 3.7 km/h 16.1 km/h 88% 0 mm 49 W/m2
15:09 15.2 °C 13.2 °C 993.5 hPa SW 3.4 km/h 9.7 km/h 88% 0 mm 35 W/m2
15:14 15.1 °C 13.1 °C 993.1 hPa SW 3.5 km/h 9.7 km/h 88% 0 mm 32 W/m2
15:19 15.1 °C 13.3 °C 993.1 hPa SW 1.9 km/h 9.7 km/h 88.9% 0 mm 47 W/m2
15:24 15.1 °C 13.3 °C 992.8 hPa SW 2.6 km/h 9.7 km/h 89% 0 mm 62 W/m2
15:29 15.1 °C 13.3 °C 992.8 hPa SSW 8 km/h 16.1 km/h 89.2% 0 mm 62 W/m2
15:34 15.1 °C 13.5 °C 992.8 hPa SSW 8.7 km/h 14.5 km/h 90% 0 mm 53 W/m2
15:39 15.1 °C 13.5 °C 992.4 hPa SSW 8.2 km/h 17.7 km/h 90% 0 mm 37 W/m2
15:44 15.1 °C 13.5 °C 992.4 hPa SW 3.9 km/h 17.7 km/h 90.2% 0 mm 25 W/m2
15:49 15.1 °C 13.6 °C 992.4 hPa SSW 7.7 km/h 19.3 km/h 91% 0 mm 12 W/m2
15:54 15.1 °C 13.5 °C 992.1 hPa SSW 7.1 km/h 16.1 km/h 91% 0 mm 7 W/m2
15:59 14.9 °C 13.4 °C 992.1 hPa SSW 5.8 km/h 16.1 km/h 91% 0.25 mm 7 W/m2
16:04 14.9 °C 13.4 °C 992.1 hPa SSW 5.8 km/h 11.3 km/h 91.3% 0.51 mm 16 W/m2
16:09 14.9 °C 13.6 °C 991.8 hPa SSW 6.3 km/h 16.1 km/h 92% 0.51 mm 18 W/m2
16:14 14.9 °C 13.6 °C 991.8 hPa SSW 5.6 km/h 16.1 km/h 92% 0.51 mm 14 W/m2
16:19 14.9 °C 13.6 °C 991.4 hPa SSW 7.6 km/h 16.1 km/h 92% 0.51 mm 11 W/m2
16:24 14.9 °C 13.7 °C 991.4 hPa South 9.5 km/h 14.5 km/h 92.2% 0.51 mm 11 W/m2
16:29 14.9 °C 13.8 °C 991.4 hPa SSW 9 km/h 17.7 km/h 93% 0.51 mm 5 W/m2
16:34 15 °C 13.9 °C 991.1 hPa South 10.8 km/h 20.9 km/h 93% 0.51 mm 5 W/m2
16:39 15.1 °C 14 °C 991.1 hPa SSW 8.9 km/h 19.3 km/h 93% 0.51 mm 0 W/m2
16:44 15.1 °C 14 °C 991.1 hPa SSW 10.3 km/h 25.7 km/h 93% 0.51 mm 0 W/m2
16:49 15.1 °C 14 °C 990.7 hPa SSW 7.2 km/h 17.7 km/h 93% 0.51 mm 0 W/m2
16:54 15.2 °C 14.1 °C 990.7 hPa SW 8.2 km/h 17.7 km/h 93% 0.51 mm 0 W/m2
16:59 15.2 °C 14.1 °C 990.7 hPa SSW 6.4 km/h 17.7 km/h 93% 0.51 mm 0 W/m2
17:04 15.2 °C 14.1 °C 990.7 hPa SSW 7.1 km/h 16.1 km/h 93% 0.51 mm 0 W/m2
17:09 15.2 °C 14.1 °C 990.7 hPa SSW 7.6 km/h 19.3 km/h 93% 0.25 mm 0 W/m2
17:14 15.2 °C 14.1 °C 990.7 hPa SW 7.4 km/h 20.9 km/h 93% 0.25 mm 0 W/m2
17:19 15.2 °C 14.1 °C 990.4 hPa SW 9.2 km/h 20.9 km/h 93% 0.25 mm 0 W/m2
17:24 15.2 °C 14.1 °C 990.4 hPa SW 10.5 km/h 17.7 km/h 93% 0.25 mm 0 W/m2
17:29 15.2 °C 14.1 °C 990.4 hPa SW 7.7 km/h 19.3 km/h 93% 0.25 mm 0 W/m2
17:34 15.2 °C 14.1 °C 990.1 hPa SSW 5.5 km/h 11.3 km/h 93% 0.25 mm 0 W/m2
17:39 15.2 °C 14.1 °C 990.1 hPa SW 8.2 km/h 19.3 km/h 93% 0.25 mm 0 W/m2
17:44 15.2 °C 14.1 °C 990.1 hPa SW 8.4 km/h 17.7 km/h 93% 0.25 mm 0 W/m2
17:49 15.2 °C 14.1 °C 990.1 hPa SSW 7.1 km/h 19.3 km/h 93% 0 mm 0 W/m2
17:54 15.2 °C 14.1 °C 989.7 hPa SSW 5.8 km/h 14.5 km/h 93% 0 mm 0 W/m2
17:59 15.2 °C 14.1 °C 989.7 hPa South 5.3 km/h 16.1 km/h 93% 0 mm 0 W/m2
18:04 15.2 °C 14.1 °C 989.7 hPa SW 8 km/h 19.3 km/h 93% 0 mm 0 W/m2
18:09 15.2 °C 14.1 °C 989.7 hPa SSW 7.6 km/h 20.9 km/h 93% 0 mm 0 W/m2
18:14 15.2 °C 13.9 °C 989.4 hPa SW 9.5 km/h 20.9 km/h 92% 0 mm 0 W/m2
18:19 15.3 °C 14 °C 989.4 hPa SW 10.9 km/h 19.3 km/h 92% 0 mm 0 W/m2
18:24 15.3 °C 14 °C 989.4 hPa SSW 9 km/h 19.3 km/h 92% 0 mm 0 W/m2
18:29 15.3 °C 14 °C 989.4 hPa SSW 8.5 km/h 22.5 km/h 92% 0 mm 0 W/m2
18:34 15.3 °C 14 °C 989.4 hPa SSW 9.3 km/h 22.5 km/h 92% 0 mm 0 W/m2
18:39 15.3 °C 14 °C 989.4 hPa SW 6.9 km/h 17.7 km/h 92% 0 mm 0 W/m2
18:44 15.3 °C 13.9 °C 989.1 hPa SSW 8.2 km/h 19.3 km/h 92% 0 mm 0 W/m2
18:49 15.3 °C 14 °C 989.1 hPa SSW 10.9 km/h 22.5 km/h 92% 0 mm 0 W/m2
18:54 15.3 °C 14 °C 989.1 hPa SSW 6.9 km/h 19.3 km/h 92% 0 mm 0 W/m2
18:59 15.3 °C 14 °C 989.1 hPa SSW 9.2 km/h 24.1 km/h 92% 0 mm 0 W/m2
19:04 15.3 °C 14 °C 989.1 hPa SSW 10.9 km/h 24.1 km/h 92% 0 mm 0 W/m2
19:09 15.3 °C 14 °C 988.7 hPa SSW 6.9 km/h 22.5 km/h 92% 0 mm 0 W/m2
19:14 15.3 °C 14 °C 988.7 hPa SSW 10.1 km/h 20.9 km/h 92% 0 mm 0 W/m2
19:19 15.3 °C 14 °C 988.7 hPa SW 9.2 km/h 20.9 km/h 91.6% 0 mm 0 W/m2
19:24 15.4 °C 13.9 °C 988.4 hPa SW 6.8 km/h 17.7 km/h 91% 0 mm 0 W/m2
19:29 15.4 °C 13.9 °C 988.4 hPa SW 8.2 km/h 19.3 km/h 91% 0 mm 0 W/m2
19:34 15.5 °C 14 °C 988 hPa SSW 9.7 km/h 17.7 km/h 91% 0 mm 0 W/m2
19:39 15.5 °C 13.9 °C 988 hPa SW 10.8 km/h 24.1 km/h 90% 0 mm 0 W/m2
19:44 15.6 °C 14 °C 988 hPa SW 12.4 km/h 24.1 km/h 90% 0 mm 0 W/m2
19:49 15.6 °C 14 °C 988 hPa SW 9.2 km/h 17.7 km/h 90% 0 mm 0 W/m2
19:54 15.5 °C 13.9 °C 988 hPa WSW 7.4 km/h 20.9 km/h 90% 0 mm 0 W/m2
19:59 15.4 °C 13.8 °C 988 hPa SW 9.2 km/h 20.9 km/h 90% 0 mm 0 W/m2
20:04 15.4 °C 13.7 °C 987.7 hPa SW 9 km/h 16.1 km/h 89.2% 0 mm 0 W/m2
20:09 15.4 °C 13.7 °C 987.7 hPa SW 7.1 km/h 17.7 km/h 89% 0 mm 0 W/m2
20:14 15.3 °C 13.7 °C 987.4 hPa SW 8.9 km/h 17.7 km/h 89.8% 0 mm 0 W/m2
20:19 15.2 °C 13.7 °C 987.4 hPa SW 6.3 km/h 12.9 km/h 90% 0 mm 0 W/m2
20:24 15.2 °C 13.6 °C 987.4 hPa SSW 4.8 km/h 12.9 km/h 90.5% 0 mm 0 W/m2
20:29 15.1 °C 13.6 °C 987 hPa SW 4.8 km/h 14.5 km/h 91% 0 mm 0 W/m2
20:34 15.1 °C 13.6 °C 987 hPa SW 6.3 km/h 12.9 km/h 91% 0 mm 0 W/m2
20:39 15.1 °C 13.6 °C 987 hPa WSW 6.8 km/h 14.5 km/h 91% 0.25 mm 0 W/m2
20:44 15 °C 13.7 °C 987 hPa SW 5.5 km/h 9.7 km/h 91.8% 0.25 mm 0 W/m2
20:49 14.9 °C 13.6 °C 987 hPa WSW 6 km/h 14.5 km/h 92% 0.25 mm 0 W/m2
20:54 14.9 °C 13.6 °C 987 hPa WSW 6.1 km/h 14.5 km/h 92% 0.51 mm 0 W/m2
20:59 14.9 °C 13.6 °C 987 hPa WSW 3.7 km/h 11.3 km/h 92% 0.51 mm 0 W/m2
21:04 14.8 °C 13.6 °C 987 hPa WSW 6.6 km/h 12.9 km/h 92% 0.51 mm 0 W/m2
21:09 14.8 °C 13.6 °C 986.7 hPa WSW 6.8 km/h 14.5 km/h 92.2% 0.76 mm 0 W/m2
21:14 14.8 °C 13.7 °C 986.7 hPa WSW 10 km/h 22.5 km/h 93% 0.76 mm 0 W/m2
21:19 14.8 °C 13.7 °C 986.7 hPa WSW 9 km/h 20.9 km/h 93% 0.76 mm 0 W/m2
21:24 14.7 °C 13.7 °C 986.7 hPa WSW 6.9 km/h 14.5 km/h 93% 0.76 mm 0 W/m2
21:29 14.7 °C 13.6 °C 986.7 hPa WSW 8.9 km/h 14.5 km/h 93% 0.76 mm 0 W/m2
21:34 14.7 °C 13.6 °C 986.7 hPa WSW 10.3 km/h 19.3 km/h 93% 0.76 mm 0 W/m2
21:39 14.6 °C 13.5 °C 986.7 hPa WSW 10.3 km/h 19.3 km/h 93% 0.76 mm 0 W/m2
21:44 14.5 °C 13.4 °C 986.7 hPa West 8.7 km/h 19.3 km/h 93% 0.51 mm 0 W/m2
21:49 14.3 °C 13.1 °C 986.7 hPa WSW 9 km/h 25.7 km/h 92.3% 0.51 mm 0 W/m2
21:54 14.2 °C 12.9 °C 986.7 hPa West 10.8 km/h 25.7 km/h 92% 0.76 mm 0 W/m2
21:59 14.2 °C 12.8 °C 986.7 hPa West 11.4 km/h 19.3 km/h 92% 0.51 mm 0 W/m2
22:04 14.1 °C 12.8 °C 986.3 hPa West 15.8 km/h 30.6 km/h 91.7% 0.51 mm 0 W/m2
22:09 14.1 °C 12.7 °C 986.3 hPa West 11.3 km/h 24.1 km/h 91% 0.51 mm 0 W/m2
22:14 14.1 °C 12.7 °C 986.3 hPa West 11.6 km/h 30.6 km/h 91% 0.25 mm 0 W/m2
22:19 14 °C 12.5 °C 986.3 hPa West 10.8 km/h 24.1 km/h 90.5% 0.25 mm 0 W/m2
22:24 14 °C 12.4 °C 986.3 hPa WSW 8.4 km/h 16.1 km/h 90% 0.25 mm 0 W/m2
22:29 14 °C 12.4 °C 986.3 hPa WSW 7.1 km/h 16.1 km/h 90% 0.25 mm 0 W/m2
22:34 13.9 °C 12.3 °C 986.3 hPa WSW 9 km/h 16.1 km/h 90% 0.25 mm 0 W/m2
22:39 13.9 °C 12.3 °C 986.3 hPa WSW 10.1 km/h 19.3 km/h 90% 0.25 mm 0 W/m2
22:44 13.9 °C 12.3 °C 986 hPa WSW 10.9 km/h 20.9 km/h 90% 0.25 mm 0 W/m2
22:49 13.9 °C 12.2 °C 986 hPa WSW 11.1 km/h 20.9 km/h 89.1% 0.25 mm 0 W/m2
22:54 13.9 °C 12.2 °C 986.3 hPa WSW 7.6 km/h 16.1 km/h 89% 0 mm 0 W/m2
22:59 13.9 °C 12.1 °C 986.3 hPa WSW 8.5 km/h 24.1 km/h 89% 0 mm 0 W/m2
23:04 13.9 °C 12.1 °C 986.3 hPa WSW 8.4 km/h 24.1 km/h 89% 0 mm 0 W/m2
23:09 13.9 °C 12.1 °C 986.3 hPa West 6.4 km/h 12.9 km/h 89% 0 mm 0 W/m2
23:14 13.8 °C 12 °C 986.3 hPa WSW 10.8 km/h 22.5 km/h 89% 0 mm 0 W/m2
23:19 13.7 °C 12.1 °C 986 hPa WSW 8.5 km/h 19.3 km/h 89.5% 0 mm 0 W/m2
23:24 13.7 °C 12.1 °C 986 hPa WSW 10.3 km/h 17.7 km/h 89.9% 0 mm 0 W/m2
23:29 13.6 °C 11.9 °C 986 hPa WSW 12.2 km/h 22.5 km/h 90% 0 mm 0 W/m2
23:34 13.4 °C 11.8 °C 986 hPa WSW 14.2 km/h 22.5 km/h 90% 0 mm 0 W/m2
23:39 13.4 °C 11.9 °C 986 hPa West 10.1 km/h 25.7 km/h 90.8% 0 mm 0 W/m2
23:44 13.4 °C 12 °C 986 hPa West 13.5 km/h 22.5 km/h 91% 0 mm 0 W/m2
23:49 13.3 °C 11.9 °C 986 hPa West 7.7 km/h 20.9 km/h 91% 0 mm 0 W/m2
23:54 13.3 °C 11.9 °C 986 hPa West 11.1 km/h 22.5 km/h 91% 0 mm 0 W/m2
23:59 13.3 °C 11.7 °C 986.3 hPa West 10.5 km/h 20.9 km/h 90.3% 0 mm 0 W/m2
Bath Spa Weather
Compliments of Weather Underground - 2 mb